sensor_id;sensor_type;location;lat;lon;timestamp;temperature;humidity
23120;DHT22;11729;50.836;4.330;2023-04-26T00:00:51;7.30;99.90
23120;DHT22;11729;50.836;4.330;2023-04-26T00:03:17;7.20;99.90
23120;DHT22;11729;50.836;4.330;2023-04-26T00:05:44;7.20;99.90
23120;DHT22;11729;50.836;4.330;2023-04-26T00:08:10;7.20;99.90
23120;DHT22;11729;50.836;4.330;2023-04-26T00:10:36;7.20;99.90
23120;DHT22;11729;50.836;4.330;2023-04-26T00:13:01;7.10;99.90
23120;DHT22;11729;50.836;4.330;2023-04-26T00:15:27;7.10;99.90
23120;DHT22;11729;50.836;4.330;2023-04-26T00:17:53;7.10;99.90
23120;DHT22;11729;50.836;4.330;2023-04-26T00:20:18;7.10;99.90
23120;DHT22;11729;50.836;4.330;2023-04-26T00:22:44;7.20;99.90
23120;DHT22;11729;50.836;4.330;2023-04-26T00:25:10;7.20;99.90
23120;DHT22;11729;50.836;4.330;2023-04-26T00:27:36;7.20;99.90
23120;DHT22;11729;50.836;4.330;2023-04-26T00:30:02;7.20;99.90
23120;DHT22;11729;50.836;4.330;2023-04-26T00:32:29;7.20;99.90
23120;DHT22;11729;50.836;4.330;2023-04-26T00:34:55;7.20;99.90
23120;DHT22;11729;50.836;4.330;2023-04-26T00:37:21;7.00;99.90
23120;DHT22;11729;50.836;4.330;2023-04-26T00:39:47;7.00;99.90
23120;DHT22;11729;50.836;4.330;2023-04-26T00:42:13;6.90;99.90
23120;DHT22;11729;50.836;4.330;2023-04-26T00:44:39;6.80;99.90
23120;DHT22;11729;50.836;4.330;2023-04-26T00:47:04;6.70;99.90
23120;DHT22;11729;50.836;4.330;2023-04-26T00:49:30;6.70;99.90
23120;DHT22;11729;50.836;4.330;2023-04-26T00:51:56;6.70;99.90
23120;DHT22;11729;50.836;4.330;2023-04-26T00:54:23;6.70;99.90
23120;DHT22;11729;50.836;4.330;2023-04-26T00:56:50;6.60;99.90
23120;DHT22;11729;50.836;4.330;2023-04-26T00:59:18;6.60;99.90
23120;DHT22;11729;50.836;4.330;2023-04-26T01:01:44;6.50;99.90
23120;DHT22;11729;50.836;4.330;2023-04-26T01:04:11;6.50;99.90
23120;DHT22;11729;50.836;4.330;2023-04-26T01:06:39;6.40;99.90
23120;DHT22;11729;50.836;4.330;2023-04-26T01:09:06;6.30;99.90
23120;DHT22;11729;50.836;4.330;2023-04-26T01:11:36;6.30;99.90
23120;DHT22;11729;50.836;4.330;2023-04-26T01:14:03;6.30;99.90
23120;DHT22;11729;50.836;4.330;2023-04-26T01:16:30;6.30;99.90
23120;DHT22;11729;50.836;4.330;2023-04-26T01:19:06;6.20;99.90
23120;DHT22;11729;50.836;4.330;2023-04-26T01:21:32;6.20;99.90
23120;DHT22;11729;50.836;4.330;2023-04-26T01:23:57;6.20;99.90
23120;DHT22;11729;50.836;4.330;2023-04-26T01:26:24;6.20;99.90
23120;DHT22;11729;50.836;4.330;2023-04-26T01:28:50;6.30;99.90
23120;DHT22;11729;50.836;4.330;2023-04-26T01:31:15;6.40;99.90
23120;DHT22;11729;50.836;4.330;2023-04-26T01:33:42;6.30;99.90
23120;DHT22;11729;50.836;4.330;2023-04-26T01:36:08;6.20;99.90
23120;DHT22;11729;50.836;4.330;2023-04-26T01:38:37;6.00;99.90
23120;DHT22;11729;50.836;4.330;2023-04-26T01:41:03;6.00;99.90
23120;DHT22;11729;50.836;4.330;2023-04-26T01:43:28;6.00;99.90
23120;DHT22;11729;50.836;4.330;2023-04-26T01:45:54;5.90;99.90
23120;DHT22;11729;50.836;4.330;2023-04-26T01:48:20;6.00;99.90
23120;DHT22;11729;50.836;4.330;2023-04-26T01:50:46;6.10;99.90
23120;DHT22;11729;50.836;4.330;2023-04-26T01:53:11;6.00;99.90
23120;DHT22;11729;50.836;4.330;2023-04-26T01:55:37;5.80;99.90
23120;DHT22;11729;50.836;4.330;2023-04-26T01:58:03;5.80;99.90
23120;DHT22;11729;50.836;4.330;2023-04-26T02:00:29;5.70;99.90
23120;DHT22;11729;50.836;4.330;2023-04-26T02:02:56;5.70;99.90
23120;DHT22;11729;50.836;4.330;2023-04-26T02:05:22;5.70;99.90
23120;DHT22;11729;50.836;4.330;2023-04-26T02:07:48;5.70;99.90
23120;DHT22;11729;50.836;4.330;2023-04-26T02:10:14;5.70;99.90
23120;DHT22;11729;50.836;4.330;2023-04-26T02:12:40;5.80;99.90
23120;DHT22;11729;50.836;4.330;2023-04-26T02:15:07;5.80;99.90
23120;DHT22;11729;50.836;4.330;2023-04-26T02:17:33;5.80;99.90
23120;DHT22;11729;50.836;4.330;2023-04-26T02:19:58;5.80;99.90
23120;DHT22;11729;50.836;4.330;2023-04-26T02:22:24;5.80;99.90
23120;DHT22;11729;50.836;4.330;2023-04-26T02:24:51;5.80;99.90
23120;DHT22;11729;50.836;4.330;2023-04-26T02:27:18;5.80;99.90
23120;DHT22;11729;50.836;4.330;2023-04-26T02:29:46;5.70;99.90
23120;DHT22;11729;50.836;4.330;2023-04-26T02:32:12;5.80;99.90
23120;DHT22;11729;50.836;4.330;2023-04-26T02:34:38;5.80;99.90
23120;DHT22;11729;50.836;4.330;2023-04-26T02:37:03;5.80;99.90
23120;DHT22;11729;50.836;4.330;2023-04-26T02:39:29;5.70;99.90
23120;DHT22;11729;50.836;4.330;2023-04-26T02:41:55;5.70;99.90
23120;DHT22;11729;50.836;4.330;2023-04-26T02:44:22;5.70;99.90
23120;DHT22;11729;50.836;4.330;2023-04-26T02:46:47;5.70;99.90
23120;DHT22;11729;50.836;4.330;2023-04-26T02:49:13;5.70;99.90
23120;DHT22;11729;50.836;4.330;2023-04-26T02:51:40;5.70;99.90
23120;DHT22;11729;50.836;4.330;2023-04-26T02:54:07;5.80;99.90
23120;DHT22;11729;50.836;4.330;2023-04-26T02:56:33;5.80;99.90
23120;DHT22;11729;50.836;4.330;2023-04-26T02:58:58;5.80;99.90
23120;DHT22;11729;50.836;4.330;2023-04-26T03:01:24;5.70;99.90
23120;DHT22;11729;50.836;4.330;2023-04-26T03:03:50;5.70;99.90
23120;DHT22;11729;50.836;4.330;2023-04-26T03:06:16;5.70;99.90
23120;DHT22;11729;50.836;4.330;2023-04-26T03:08:41;5.60;99.90
23120;DHT22;11729;50.836;4.330;2023-04-26T03:11:07;5.60;99.90
23120;DHT22;11729;50.836;4.330;2023-04-26T03:13:33;5.60;99.90
23120;DHT22;11729;50.836;4.330;2023-04-26T03:15:58;5.80;99.90
23120;DHT22;11729;50.836;4.330;2023-04-26T03:18:24;5.70;99.90
23120;DHT22;11729;50.836;4.330;2023-04-26T03:20:49;5.70;99.90
23120;DHT22;11729;50.836;4.330;2023-04-26T03:23:15;5.60;99.90
23120;DHT22;11729;50.836;4.330;2023-04-26T03:25:41;5.60;99.90
23120;DHT22;11729;50.836;4.330;2023-04-26T03:28:07;5.60;99.90
23120;DHT22;11729;50.836;4.330;2023-04-26T03:30:32;5.50;99.90
23120;DHT22;11729;50.836;4.330;2023-04-26T03:32:58;5.50;99.90
23120;DHT22;11729;50.836;4.330;2023-04-26T03:35:25;5.40;99.90
23120;DHT22;11729;50.836;4.330;2023-04-26T03:37:50;5.50;99.90
23120;DHT22;11729;50.836;4.330;2023-04-26T03:40:16;5.50;99.90
23120;DHT22;11729;50.836;4.330;2023-04-26T03:42:43;5.40;99.90
23120;DHT22;11729;50.836;4.330;2023-04-26T03:45:09;5.30;99.90
23120;DHT22;11729;50.836;4.330;2023-04-26T03:47:35;5.20;99.90
23120;DHT22;11729;50.836;4.330;2023-04-26T03:50:01;5.30;99.90
23120;DHT22;11729;50.836;4.330;2023-04-26T03:52:27;5.40;99.90
23120;DHT22;11729;50.836;4.330;2023-04-26T03:54:53;5.50;99.90
23120;DHT22;11729;50.836;4.330;2023-04-26T03:57:19;5.40;99.90
23120;DHT22;11729;50.836;4.330;2023-04-26T03:59:44;5.50;99.90
23120;DHT22;11729;50.836;4.330;2023-04-26T04:02:10;5.40;99.90
23120;DHT22;11729;50.836;4.330;2023-04-26T04:04:36;5.30;99.90
23120;DHT22;11729;50.836;4.330;2023-04-26T04:07:01;5.30;99.90
23120;DHT22;11729;50.836;4.330;2023-04-26T04:09:27;5.30;99.90
23120;DHT22;11729;50.836;4.330;2023-04-26T04:11:52;5.40;99.90
23120;DHT22;11729;50.836;4.330;2023-04-26T04:14:18;5.50;99.90
23120;DHT22;11729;50.836;4.330;2023-04-26T04:16:44;5.50;99.90
23120;DHT22;11729;50.836;4.330;2023-04-26T04:19:10;5.50;99.90
23120;DHT22;11729;50.836;4.330;2023-04-26T04:21:36;5.50;99.90
23120;DHT22;11729;50.836;4.330;2023-04-26T04:24:02;5.60;99.90
23120;DHT22;11729;50.836;4.330;2023-04-26T04:26:28;5.60;99.90
23120;DHT22;11729;50.836;4.330;2023-04-26T04:28:54;5.70;99.90
23120;DHT22;11729;50.836;4.330;2023-04-26T04:31:20;5.70;99.90
23120;DHT22;11729;50.836;4.330;2023-04-26T04:33:47;5.70;99.90
23120;DHT22;11729;50.836;4.330;2023-04-26T04:36:13;5.60;99.90
23120;DHT22;11729;50.836;4.330;2023-04-26T04:38:41;5.60;99.90
23120;DHT22;11729;50.836;4.330;2023-04-26T04:41:07;5.70;99.90
23120;DHT22;11729;50.836;4.330;2023-04-26T04:43:33;5.80;99.90
23120;DHT22;11729;50.836;4.330;2023-04-26T04:45:59;5.80;99.90
23120;DHT22;11729;50.836;4.330;2023-04-26T04:48:24;5.90;99.90
23120;DHT22;11729;50.836;4.330;2023-04-26T04:50:51;6.00;99.90
23120;DHT22;11729;50.836;4.330;2023-04-26T04:53:17;6.00;99.90
23120;DHT22;11729;50.836;4.330;2023-04-26T04:55:43;6.00;99.90
23120;DHT22;11729;50.836;4.330;2023-04-26T04:58:09;6.10;99.90
23120;DHT22;11729;50.836;4.330;2023-04-26T05:00:35;6.10;99.90
23120;DHT22;11729;50.836;4.330;2023-04-26T05:03:02;6.20;99.90
23120;DHT22;11729;50.836;4.330;2023-04-26T05:05:28;6.20;99.90
23120;DHT22;11729;50.836;4.330;2023-04-26T05:07:53;6.20;99.90
23120;DHT22;11729;50.836;4.330;2023-04-26T05:10:19;6.30;99.90
23120;DHT22;11729;50.836;4.330;2023-04-26T05:12:45;6.30;99.90
23120;DHT22;11729;50.836;4.330;2023-04-26T05:15:11;6.40;99.90
23120;DHT22;11729;50.836;4.330;2023-04-26T05:17:36;6.30;99.90
23120;DHT22;11729;50.836;4.330;2023-04-26T05:20:02;6.40;99.90
23120;DHT22;11729;50.836;4.330;2023-04-26T05:22:31;6.50;99.90
23120;DHT22;11729;50.836;4.330;2023-04-26T05:24:58;6.60;99.90
23120;DHT22;11729;50.836;4.330;2023-04-26T05:27:23;6.70;99.90
23120;DHT22;11729;50.836;4.330;2023-04-26T05:29:49;6.80;99.90
23120;DHT22;11729;50.836;4.330;2023-04-26T05:32:15;6.80;99.90
23120;DHT22;11729;50.836;4.330;2023-04-26T05:34:41;7.00;99.90
23120;DHT22;11729;50.836;4.330;2023-04-26T05:37:07;6.90;99.90
23120;DHT22;11729;50.836;4.330;2023-04-26T05:39:32;7.00;99.90
23120;DHT22;11729;50.836;4.330;2023-04-26T05:41:58;7.20;99.90
23120;DHT22;11729;50.836;4.330;2023-04-26T05:44:23;7.30;99.90
23120;DHT22;11729;50.836;4.330;2023-04-26T05:46:50;7.40;99.90
23120;DHT22;11729;50.836;4.330;2023-04-26T05:49:16;7.40;99.90
23120;DHT22;11729;50.836;4.330;2023-04-26T05:51:41;7.50;99.90
23120;DHT22;11729;50.836;4.330;2023-04-26T05:54:07;7.60;99.90
23120;DHT22;11729;50.836;4.330;2023-04-26T05:56:33;7.70;99.90
23120;DHT22;11729;50.836;4.330;2023-04-26T05:58:58;7.90;99.90
23120;DHT22;11729;50.836;4.330;2023-04-26T06:01:24;7.90;99.90
23120;DHT22;11729;50.836;4.330;2023-04-26T06:03:50;8.10;99.90
23120;DHT22;11729;50.836;4.330;2023-04-26T06:06:18;8.20;99.90
23120;DHT22;11729;50.836;4.330;2023-04-26T06:08:44;8.20;99.90
23120;DHT22;11729;50.836;4.330;2023-04-26T06:11:10;8.40;99.90
23120;DHT22;11729;50.836;4.330;2023-04-26T06:13:36;8.70;99.90
23120;DHT22;11729;50.836;4.330;2023-04-26T06:16:02;9.40;99.90
23120;DHT22;11729;50.836;4.330;2023-04-26T06:18:27;10.60;99.90
23120;DHT22;11729;50.836;4.330;2023-04-26T06:20:53;11.90;99.90
23120;DHT22;11729;50.836;4.330;2023-04-26T06:23:19;11.90;99.90
23120;DHT22;11729;50.836;4.330;2023-04-26T06:25:44;12.10;99.90
23120;DHT22;11729;50.836;4.330;2023-04-26T06:28:11;12.10;99.90
23120;DHT22;11729;50.836;4.330;2023-04-26T06:30:37;11.90;99.90
23120;DHT22;11729;50.836;4.330;2023-04-26T06:33:03;11.40;99.90
23120;DHT22;11729;50.836;4.330;2023-04-26T06:35:28;11.30;99.90
23120;DHT22;11729;50.836;4.330;2023-04-26T06:37:54;11.40;99.90
23120;DHT22;11729;50.836;4.330;2023-04-26T06:40:20;11.20;99.90
23120;DHT22;11729;50.836;4.330;2023-04-26T06:42:46;11.30;99.90
23120;DHT22;11729;50.836;4.330;2023-04-26T06:45:12;11.30;99.90
23120;DHT22;11729;50.836;4.330;2023-04-26T06:47:38;11.30;99.90
23120;DHT22;11729;50.836;4.330;2023-04-26T06:50:04;11.10;99.90
23120;DHT22;11729;50.836;4.330;2023-04-26T06:52:30;11.10;99.90
23120;DHT22;11729;50.836;4.330;2023-04-26T06:54:56;11.10;99.90
23120;DHT22;11729;50.836;4.330;2023-04-26T06:57:21;11.10;99.90
23120;DHT22;11729;50.836;4.330;2023-04-26T06:59:47;11.00;99.90
23120;DHT22;11729;50.836;4.330;2023-04-26T07:02:12;10.90;99.90
23120;DHT22;11729;50.836;4.330;2023-04-26T07:04:38;11.00;99.90
23120;DHT22;11729;50.836;4.330;2023-04-26T07:07:05;11.00;99.90
23120;DHT22;11729;50.836;4.330;2023-04-26T07:09:31;11.10;99.90
23120;DHT22;11729;50.836;4.330;2023-04-26T07:11:57;11.00;99.90
23120;DHT22;11729;50.836;4.330;2023-04-26T07:14:23;11.10;99.90
23120;DHT22;11729;50.836;4.330;2023-04-26T07:16:49;11.00;99.90
23120;DHT22;11729;50.836;4.330;2023-04-26T07:19:14;10.70;99.90
23120;DHT22;11729;50.836;4.330;2023-04-26T07:21:40;10.60;99.90
23120;DHT22;11729;50.836;4.330;2023-04-26T07:24:06;10.90;99.90
23120;DHT22;11729;50.836;4.330;2023-04-26T07:26:34;11.00;99.90
23120;DHT22;11729;50.836;4.330;2023-04-26T07:29:00;10.80;99.90
23120;DHT22;11729;50.836;4.330;2023-04-26T07:31:27;10.80;99.90
23120;DHT22;11729;50.836;4.330;2023-04-26T07:33:53;10.90;99.90
23120;DHT22;11729;50.836;4.330;2023-04-26T07:36:18;11.00;99.90
23120;DHT22;11729;50.836;4.330;2023-04-26T07:38:44;11.00;99.90
23120;DHT22;11729;50.836;4.330;2023-04-26T07:41:10;11.20;99.90
23120;DHT22;11729;50.836;4.330;2023-04-26T07:43:37;11.10;99.90
23120;DHT22;11729;50.836;4.330;2023-04-26T07:46:03;11.60;99.90
23120;DHT22;11729;50.836;4.330;2023-04-26T07:48:28;12.10;99.90
23120;DHT22;11729;50.836;4.330;2023-04-26T07:50:55;12.40;99.90
23120;DHT22;11729;50.836;4.330;2023-04-26T07:53:21;12.80;99.90
23120;DHT22;11729;50.836;4.330;2023-04-26T07:55:49;13.00;99.90
23120;DHT22;11729;50.836;4.330;2023-04-26T07:58:17;13.40;99.90
23120;DHT22;11729;50.836;4.330;2023-04-26T08:00:43;13.60;99.90
23120;DHT22;11729;50.836;4.330;2023-04-26T08:03:09;13.70;99.90
23120;DHT22;11729;50.836;4.330;2023-04-26T08:05:37;13.90;99.90
23120;DHT22;11729;50.836;4.330;2023-04-26T08:08:03;13.60;99.90
23120;DHT22;11729;50.836;4.330;2023-04-26T08:10:30;13.50;99.90
23120;DHT22;11729;50.836;4.330;2023-04-26T08:12:55;13.10;99.90
23120;DHT22;11729;50.836;4.330;2023-04-26T08:15:21;13.50;99.90
23120;DHT22;11729;50.836;4.330;2023-04-26T08:17:47;13.30;99.90
23120;DHT22;11729;50.836;4.330;2023-04-26T08:20:13;13.40;99.90
23120;DHT22;11729;50.836;4.330;2023-04-26T08:22:38;13.60;99.90
23120;DHT22;11729;50.836;4.330;2023-04-26T08:25:04;13.90;99.90
23120;DHT22;11729;50.836;4.330;2023-04-26T08:27:30;13.80;99.90
23120;DHT22;11729;50.836;4.330;2023-04-26T08:29:58;14.00;99.80
23120;DHT22;11729;50.836;4.330;2023-04-26T08:32:25;13.90;98.90
23120;DHT22;11729;50.836;4.330;2023-04-26T08:34:50;14.10;99.90
23120;DHT22;11729;50.836;4.330;2023-04-26T08:37:16;14.50;98.30
23120;DHT22;11729;50.836;4.330;2023-04-26T08:39:41;14.50;98.20
23120;DHT22;11729;50.836;4.330;2023-04-26T08:42:15;14.80;96.40
23120;DHT22;11729;50.836;4.330;2023-04-26T08:44:43;15.10;95.20
23120;DHT22;11729;50.836;4.330;2023-04-26T08:49:40;15.40;94.40
23120;DHT22;11729;50.836;4.330;2023-04-26T08:52:12;15.10;93.70
23120;DHT22;11729;50.836;4.330;2023-04-26T08:54:39;14.80;93.20
23120;DHT22;11729;50.836;4.330;2023-04-26T08:57:05;14.90;95.90
23120;DHT22;11729;50.836;4.330;2023-04-26T08:59:37;15.80;93.60
23120;DHT22;11729;50.836;4.330;2023-04-26T09:02:06;15.80;92.60
23120;DHT22;11729;50.836;4.330;2023-04-26T09:04:34;16.40;90.80
23120;DHT22;11729;50.836;4.330;2023-04-26T09:07:02;16.40;88.20
23120;DHT22;11729;50.836;4.330;2023-04-26T09:09:32;16.60;91.50
23120;DHT22;11729;50.836;4.330;2023-04-26T09:11:59;16.20;86.00
23120;DHT22;11729;50.836;4.330;2023-04-26T09:14:26;15.70;88.40
23120;DHT22;11729;50.836;4.330;2023-04-26T09:16:52;16.70;86.30
23120;DHT22;11729;50.836;4.330;2023-04-26T09:19:39;17.60;82.70
23120;DHT22;11729;50.836;4.330;2023-04-26T09:22:07;18.90;75.50
23120;DHT22;11729;50.836;4.330;2023-04-26T09:24:49;19.10;70.50
23120;DHT22;11729;50.836;4.330;2023-04-26T09:27:15;18.90;69.20
23120;DHT22;11729;50.836;4.330;2023-04-26T09:32:49;19.00;69.30
23120;DHT22;11729;50.836;4.330;2023-04-26T09:38:06;20.10;64.90
23120;DHT22;11729;50.836;4.330;2023-04-26T09:40:37;20.20;64.20
23120;DHT22;11729;50.836;4.330;2023-04-26T09:43:20;19.30;61.70
23120;DHT22;11729;50.836;4.330;2023-04-26T09:45:55;19.40;61.50
23120;DHT22;11729;50.836;4.330;2023-04-26T09:48:26;18.70;62.10
23120;DHT22;11729;50.836;4.330;2023-04-26T09:55:57;18.60;60.00
23120;DHT22;11729;50.836;4.330;2023-04-26T09:58:23;19.00;60.60
23120;DHT22;11729;50.836;4.330;2023-04-26T10:00:52;19.70;60.60
23120;DHT22;11729;50.836;4.330;2023-04-26T10:03:19;18.60;58.40
23120;DHT22;11729;50.836;4.330;2023-04-26T10:05:47;18.10;59.80
23120;DHT22;11729;50.836;4.330;2023-04-26T10:08:13;17.80;61.70
23120;DHT22;11729;50.836;4.330;2023-04-26T10:10:41;17.50;65.00
23120;DHT22;11729;50.836;4.330;2023-04-26T10:13:06;18.00;63.20
23120;DHT22;11729;50.836;4.330;2023-04-26T10:15:33;18.80;64.20
23120;DHT22;11729;50.836;4.330;2023-04-26T10:17:59;18.80;59.50
23120;DHT22;11729;50.836;4.330;2023-04-26T10:20:27;18.50;60.50
23120;DHT22;11729;50.836;4.330;2023-04-26T10:22:55;18.20;59.60
23120;DHT22;11729;50.836;4.330;2023-04-26T10:25:37;18.60;61.50
23120;DHT22;11729;50.836;4.330;2023-04-26T10:28:03;18.60;59.30
23120;DHT22;11729;50.836;4.330;2023-04-26T10:30:29;18.60;61.90
23120;DHT22;11729;50.836;4.330;2023-04-26T10:35:30;17.50;61.20
23120;DHT22;11729;50.836;4.330;2023-04-26T10:45:47;19.90;61.70
23120;DHT22;11729;50.836;4.330;2023-04-26T10:48:18;21.00;56.00
23120;DHT22;11729;50.836;4.330;2023-04-26T10:59:08;21.10;53.90
23120;DHT22;11729;50.836;4.330;2023-04-26T11:01:34;20.70;56.60
23120;DHT22;11729;50.836;4.330;2023-04-26T11:04:07;20.00;55.60
23120;DHT22;11729;50.836;4.330;2023-04-26T11:06:52;19.30;57.50
23120;DHT22;11729;50.836;4.330;2023-04-26T11:09:47;18.50;60.20
23120;DHT22;11729;50.836;4.330;2023-04-26T11:12:13;18.10;61.10
23120;DHT22;11729;50.836;4.330;2023-04-26T11:14:44;17.80;60.20
23120;DHT22;11729;50.836;4.330;2023-04-26T11:17:11;18.20;64.10
23120;DHT22;11729;50.836;4.330;2023-04-26T11:19:42;19.30;62.10
23120;DHT22;11729;50.836;4.330;2023-04-26T11:22:11;19.30;58.20
23120;DHT22;11729;50.836;4.330;2023-04-26T11:24:37;18.90;58.30
23120;DHT22;11729;50.836;4.330;2023-04-26T11:27:09;18.60;59.40
23120;DHT22;11729;50.836;4.330;2023-04-26T11:29:34;18.20;61.50
23120;DHT22;11729;50.836;4.330;2023-04-26T11:32:01;18.20;59.40
23120;DHT22;11729;50.836;4.330;2023-04-26T11:34:35;18.30;61.20
23120;DHT22;11729;50.836;4.330;2023-04-26T11:37:05;19.00;60.30
23120;DHT22;11729;50.836;4.330;2023-04-26T11:39:34;19.50;59.30
23120;DHT22;11729;50.836;4.330;2023-04-26T11:42:07;20.30;59.00
23120;DHT22;11729;50.836;4.330;2023-04-26T11:44:34;21.80;57.30
23120;DHT22;11729;50.836;4.330;2023-04-26T11:47:06;22.70;55.20
23120;DHT22;11729;50.836;4.330;2023-04-26T11:49:35;22.30;49.80
23120;DHT22;11729;50.836;4.330;2023-04-26T11:52:02;22.10;52.30
23120;DHT22;11729;50.836;4.330;2023-04-26T11:54:29;22.60;53.00
23120;DHT22;11729;50.836;4.330;2023-04-26T11:56:56;22.70;52.60
23120;DHT22;11729;50.836;4.330;2023-04-26T11:59:26;23.00;49.40
23120;DHT22;11729;50.836;4.330;2023-04-26T12:01:53;22.90;48.20
23120;DHT22;11729;50.836;4.330;2023-04-26T12:04:28;23.50;52.00
23120;DHT22;11729;50.836;4.330;2023-04-26T12:06:54;24.60;46.80
23120;DHT22;11729;50.836;4.330;2023-04-26T12:09:26;24.30;46.30
23120;DHT22;11729;50.836;4.330;2023-04-26T12:12:00;24.20;46.80
23120;DHT22;11729;50.836;4.330;2023-04-26T12:14:32;23.60;45.70
23120;DHT22;11729;50.836;4.330;2023-04-26T12:16:59;23.50;44.40
23120;DHT22;11729;50.836;4.330;2023-04-26T12:19:37;22.80;46.00
23120;DHT22;11729;50.836;4.330;2023-04-26T12:22:04;23.10;46.70
23120;DHT22;11729;50.836;4.330;2023-04-26T12:24:31;24.10;46.90
23120;DHT22;11729;50.836;4.330;2023-04-26T12:27:04;24.10;44.40
23120;DHT22;11729;50.836;4.330;2023-04-26T12:29:31;23.60;44.40
23120;DHT22;11729;50.836;4.330;2023-04-26T12:32:01;23.90;43.10
23120;DHT22;11729;50.836;4.330;2023-04-26T12:34:29;24.00;44.40
23120;DHT22;11729;50.836;4.330;2023-04-26T12:36:55;24.50;44.90
23120;DHT22;11729;50.836;4.330;2023-04-26T12:39:20;25.50;41.80
23120;DHT22;11729;50.836;4.330;2023-04-26T12:41:46;24.40;40.40
23120;DHT22;11729;50.836;4.330;2023-04-26T12:44:12;24.10;43.10
23120;DHT22;11729;50.836;4.330;2023-04-26T12:46:38;23.30;43.00
23120;DHT22;11729;50.836;4.330;2023-04-26T12:49:07;22.30;43.60
23120;DHT22;11729;50.836;4.330;2023-04-26T12:51:33;21.30;43.80
23120;DHT22;11729;50.836;4.330;2023-04-26T12:53:59;20.40;45.70
23120;DHT22;11729;50.836;4.330;2023-04-26T12:56:24;20.10;49.80
23120;DHT22;11729;50.836;4.330;2023-04-26T12:58:50;19.40;50.10
23120;DHT22;11729;50.836;4.330;2023-04-26T13:01:16;19.20;48.50
23120;DHT22;11729;50.836;4.330;2023-04-26T13:03:42;18.60;50.90
23120;DHT22;11729;50.836;4.330;2023-04-26T13:06:08;17.30;49.90
23120;DHT22;11729;50.836;4.330;2023-04-26T13:08:34;17.20;53.60
23120;DHT22;11729;50.836;4.330;2023-04-26T13:11:03;17.40;52.80
23120;DHT22;11729;50.836;4.330;2023-04-26T13:13:29;17.40;53.30
23120;DHT22;11729;50.836;4.330;2023-04-26T13:15:55;17.30;54.50
23120;DHT22;11729;50.836;4.330;2023-04-26T13:18:20;17.20;54.30
23120;DHT22;11729;50.836;4.330;2023-04-26T13:20:46;16.90;53.40
23120;DHT22;11729;50.836;4.330;2023-04-26T13:23:12;17.50;54.40
23120;DHT22;11729;50.836;4.330;2023-04-26T13:25:37;17.30;52.00
23120;DHT22;11729;50.836;4.330;2023-04-26T13:28:03;17.50;54.50
23120;DHT22;11729;50.836;4.330;2023-04-26T13:30:29;17.00;53.60
23120;DHT22;11729;50.836;4.330;2023-04-26T13:32:55;16.70;54.50
23120;DHT22;11729;50.836;4.330;2023-04-26T13:35:22;16.10;53.60
23120;DHT22;11729;50.836;4.330;2023-04-26T13:37:48;16.30;55.50
23120;DHT22;11729;50.836;4.330;2023-04-26T13:40:14;17.20;55.90
23120;DHT22;11729;50.836;4.330;2023-04-26T13:42:41;17.40;52.10
23120;DHT22;11729;50.836;4.330;2023-04-26T13:45:07;17.40;53.30
23120;DHT22;11729;50.836;4.330;2023-04-26T13:47:35;17.60;52.90
23120;DHT22;11729;50.836;4.330;2023-04-26T13:50:01;18.30;54.60
23120;DHT22;11729;50.836;4.330;2023-04-26T13:52:26;18.90;53.20
23120;DHT22;11729;50.836;4.330;2023-04-26T13:54:52;19.30;53.40
23120;DHT22;11729;50.836;4.330;2023-04-26T13:57:18;19.40;53.90
23120;DHT22;11729;50.836;4.330;2023-04-26T13:59:44;19.30;49.90
23120;DHT22;11729;50.836;4.330;2023-04-26T14:02:10;19.20;53.00
23120;DHT22;11729;50.836;4.330;2023-04-26T14:04:37;18.90;52.60
23120;DHT22;11729;50.836;4.330;2023-04-26T14:07:02;18.80;54.50
23120;DHT22;11729;50.836;4.330;2023-04-26T14:09:29;18.60;51.20
23120;DHT22;11729;50.836;4.330;2023-04-26T14:11:55;18.70;53.30
23120;DHT22;11729;50.836;4.330;2023-04-26T14:14:21;18.40;51.50
23120;DHT22;11729;50.836;4.330;2023-04-26T14:16:46;18.20;52.30
23120;DHT22;11729;50.836;4.330;2023-04-26T14:19:12;18.40;55.70
23120;DHT22;11729;50.836;4.330;2023-04-26T14:21:40;18.40;53.40
23120;DHT22;11729;50.836;4.330;2023-04-26T14:24:06;18.20;53.80
23120;DHT22;11729;50.836;4.330;2023-04-26T14:26:32;17.90;52.80
23120;DHT22;11729;50.836;4.330;2023-04-26T14:28:58;16.50;53.00
23120;DHT22;11729;50.836;4.330;2023-04-26T14:31:25;16.40;55.60
23120;DHT22;11729;50.836;4.330;2023-04-26T14:33:52;16.80;58.00
23120;DHT22;11729;50.836;4.330;2023-04-26T14:36:18;16.90;54.50
23120;DHT22;11729;50.836;4.330;2023-04-26T14:38:44;17.10;54.90
23120;DHT22;11729;50.836;4.330;2023-04-26T14:41:18;16.70;55.50
23120;DHT22;11729;50.836;4.330;2023-04-26T14:43:45;16.80;55.80
23120;DHT22;11729;50.836;4.330;2023-04-26T14:46:12;16.50;56.90
23120;DHT22;11729;50.836;4.330;2023-04-26T14:48:37;16.60;55.90
23120;DHT22;11729;50.836;4.330;2023-04-26T14:51:03;16.40;56.40
23120;DHT22;11729;50.836;4.330;2023-04-26T14:53:29;16.50;56.20
23120;DHT22;11729;50.836;4.330;2023-04-26T14:55:55;16.50;57.70
23120;DHT22;11729;50.836;4.330;2023-04-26T14:58:23;16.50;57.00
23120;DHT22;11729;50.836;4.330;2023-04-26T15:00:49;16.70;57.00
23120;DHT22;11729;50.836;4.330;2023-04-26T15:03:15;16.90;56.60
23120;DHT22;11729;50.836;4.330;2023-04-26T15:05:41;16.90;55.00
23120;DHT22;11729;50.836;4.330;2023-04-26T15:08:06;17.00;56.00
23120;DHT22;11729;50.836;4.330;2023-04-26T15:10:32;16.60;55.40
23120;DHT22;11729;50.836;4.330;2023-04-26T15:12:58;16.50;56.80
23120;DHT22;11729;50.836;4.330;2023-04-26T15:15:23;16.50;57.00
23120;DHT22;11729;50.836;4.330;2023-04-26T15:17:49;16.40;57.40
23120;DHT22;11729;50.836;4.330;2023-04-26T15:20:15;16.60;57.30
23120;DHT22;11729;50.836;4.330;2023-04-26T15:22:40;16.60;58.50
23120;DHT22;11729;50.836;4.330;2023-04-26T15:25:07;16.30;56.30
23120;DHT22;11729;50.836;4.330;2023-04-26T15:27:36;16.10;56.00
23120;DHT22;11729;50.836;4.330;2023-04-26T15:30:03;15.80;57.40
23120;DHT22;11729;50.836;4.330;2023-04-26T15:32:29;15.80;58.80
23120;DHT22;11729;50.836;4.330;2023-04-26T15:34:55;15.90;59.60
23120;DHT22;11729;50.836;4.330;2023-04-26T15:37:20;15.50;57.90
23120;DHT22;11729;50.836;4.330;2023-04-26T15:39:47;15.50;60.10
23120;DHT22;11729;50.836;4.330;2023-04-26T15:42:12;15.40;59.10
23120;DHT22;11729;50.836;4.330;2023-04-26T15:44:39;14.90;58.60
23120;DHT22;11729;50.836;4.330;2023-04-26T15:47:06;14.80;61.40
23120;DHT22;11729;50.836;4.330;2023-04-26T15:49:31;14.70;59.50
23120;DHT22;11729;50.836;4.330;2023-04-26T15:51:57;14.50;60.20
23120;DHT22;11729;50.836;4.330;2023-04-26T15:54:23;14.50;60.40
23120;DHT22;11729;50.836;4.330;2023-04-26T15:56:49;14.40;60.60
23120;DHT22;11729;50.836;4.330;2023-04-26T15:59:14;14.50;62.10
23120;DHT22;11729;50.836;4.330;2023-04-26T16:01:42;14.80;63.30
23120;DHT22;11729;50.836;4.330;2023-04-26T16:04:07;14.50;60.50
23120;DHT22;11729;50.836;4.330;2023-04-26T16:06:33;14.30;60.10